Time;durP1;ratioP1;P1;durP2;ratioP2;P2;SDS_P1;SDS_P2;PMS_P1;PMS_P2;Temp;Humidity;BMP_temperature;BMP_pressure;BME280_temperature;BME280_humidity;BME280_pressure;Samples;Min_cycle;Max_cycle;Signal;HPM_P1;HPM_P2
2021/07/02 00:00:52;;;;;;;6.10;4.20;;;;;;;21.79;71.50;100957.22;5090012;28;20574;-63
2021/07/02 00:03:18;;;;;;;11.07;4.83;;;;;;;21.71;72.36;100954.09;5092621;28;20199;-62
2021/07/02 00:05:43;;;;;;;12.10;5.10;;;;;;;21.59;73.23;100951.66;5094847;28;20186;-63
2021/07/02 00:08:09;;;;;;;11.77;5.37;;;;;;;21.51;74.35;100959.03;5094243;28;20236;-62
2021/07/02 00:10:34;;;;;;;12.40;4.80;;;;;;;21.56;73.39;100961.91;5093984;28;20565;-62
2021/07/02 00:13:00;;;;;;;10.07;4.90;;;;;;;21.63;73.88;100960.66;5094640;28;20714;-62
2021/07/02 00:15:25;;;;;;;10.17;4.80;;;;;;;21.52;72.64;100947.25;5094455;28;20193;-63
2021/07/02 00:17:51;;;;;;;12.50;5.20;;;;;;;21.48;73.11;100941.06;5093833;28;20189;-63
2021/07/02 00:20:16;;;;;;;12.20;5.20;;;;;;;21.55;73.75;100939.84;5086332;28;20614;-63
2021/07/02 00:22:42;;;;;;;9.27;4.83;;;;;;;21.58;73.53;100938.81;5074039;28;20183;-63
2021/07/02 00:25:08;;;;;;;16.30;5.77;;;;;;;21.51;74.46;100934.44;5083001;28;20270;-63
2021/07/02 00:27:34;;;;;;;12.77;5.80;;;;;;;21.49;74.53;100924.91;5093567;28;20274;-62
2021/07/02 00:29:59;;;;;;;11.53;5.63;;;;;;;21.46;74.61;100921.06;5094098;28;20683;-63
2021/07/02 00:32:25;;;;;;;13.43;4.40;;;;;;;20.91;73.88;100829.59;5093546;28;20671;-63
2021/07/02 00:34:50;;;;;;;8.90;4.73;;;;;;;21.57;73.29;100909.06;5094361;28;20296;-63
2021/07/02 00:37:16;;;;;;;9.10;4.63;;;;;;;21.56;72.91;100910.34;5093236;28;20687;-63
2021/07/02 00:39:41;;;;;;;12.87;4.77;;;;;;;21.40;72.69;100880.75;5093639;28;20182;-63
2021/07/02 00:42:07;;;;;;;7.70;4.17;;;;;;;21.66;72.42;100914.53;5093693;28;20183;-63
2021/07/02 00:44:47;;;;;;;10.40;4.57;;;;;;;21.69;72.87;100919.22;5093847;28;20581;-63
2021/07/02 00:47:14;;;;;;;11.43;4.60;;;;;;;21.33;72.60;100872.00;5093373;28;20236;-63
2021/07/02 00:49:40;;;;;;;12.03;4.83;;;;;;;21.49;72.42;100889.03;5093691;28;20541;-63
2021/07/02 00:52:08;;;;;;;8.10;4.17;;;;;;;21.65;72.88;100916.56;5093385;28;20171;-63
2021/07/02 00:54:36;;;;;;;10.40;3.60;;;;;;;21.65;72.10;100919.41;5093762;28;20230;-63
2021/07/02 00:57:04;;;;;;;12.30;4.10;;;;;;;21.52;72.10;100915.44;5079026;28;20179;-62
2021/07/02 00:59:30;;;;;;;14.70;4.50;;;;;;;21.17;72.52;100870.56;5073215;28;20171;-63
2021/07/02 01:01:56;;;;;;;11.73;4.60;;;;;;;21.50;73.06;100915.19;5088632;28;20189;-62
2021/07/02 01:04:23;;;;;;;10.50;3.93;;;;;;;21.11;72.53;100858.47;5093502;28;20198;-63
2021/07/02 01:06:51;;;;;;;14.07;4.17;;;;;;;21.30;72.70;100921.69;5092961;28;20179;-63
2021/07/02 01:09:17;;;;;;;5.83;3.90;;;;;;;21.30;73.10;100912.44;5093290;28;20183;-63
2021/07/02 01:11:43;;;;;;;6.10;4.00;;;;;;;21.21;72.87;100926.69;5093016;28;20175;-63
2021/07/02 01:14:08;;;;;;;7.10;3.70;;;;;;;20.74;72.96;100862.44;5077093;28;20653;-63
2021/07/02 01:16:36;;;;;;;12.07;3.80;;;;;;;20.72;72.99;100874.19;5093389;28;20652;-63
2021/07/02 01:19:02;;;;;;;9.20;3.87;;;;;;;21.11;73.00;100930.97;5092653;28;20194;-63
2021/07/02 01:21:27;;;;;;;5.93;3.30;;;;;;;21.08;72.76;100923.53;5092277;28;20318;-62
2021/07/02 01:23:52;;;;;;;5.13;3.10;;;;;;;21.18;72.69;100908.75;5093221;28;20253;-63
2021/07/02 01:26:19;;;;;;;8.50;3.47;;;;;;;21.17;72.22;100917.69;5074184;28;20270;-63
2021/07/02 01:28:44;;;;;;;6.10;3.07;;;;;;;21.15;72.25;100908.97;5072513;28;20705;-63
2021/07/02 01:31:10;;;;;;;6.10;3.30;;;;;;;20.69;72.40;100840.63;5072419;28;20270;-63
2021/07/02 01:33:35;;;;;;;6.87;3.30;;;;;;;21.15;71.91;100892.06;5072715;28;20243;-63
2021/07/02 01:36:18;;;;;;;12.20;3.40;;;;;;;21.15;71.91;100890.03;5072797;28;20205;-63
2021/07/02 01:38:44;;;;;;;4.90;3.30;;;;;;;21.17;71.20;100895.94;5072104;28;20164;-63
2021/07/02 01:41:09;;;;;;;4.97;3.23;;;;;;;21.17;71.71;100895.94;5072335;28;20186;-63
2021/07/02 01:43:35;;;;;;;10.07;3.70;;;;;;;21.15;71.40;100892.06;5096128;28;20244;-64
2021/07/02 01:46:00;;;;;;;7.03;3.30;;;;;;;21.14;70.59;100885.66;5092966;28;20178;-63
2021/07/02 01:48:26;;;;;;;6.87;3.83;;;;;;;20.55;70.32;100805.66;5091878;28;20198;-62
2021/07/02 01:50:51;;;;;;;8.47;3.93;;;;;;;20.77;71.22;100845.31;5090849;28;20197;-63
2021/07/02 01:53:17;;;;;;;5.33;4.63;;;;;;;20.75;70.59;100870.38;5092642;28;20178;-63
2021/07/02 01:55:42;;;;;;;8.30;4.80;;;;;;;20.19;70.56;100783.78;5092740;28;20253;-62
2021/07/02 01:58:08;;;;;;;7.80;5.27;;;;;;;20.86;71.12;100872.53;5091839;28;20648;-63
2021/07/02 02:00:33;;;;;;;6.83;4.60;;;;;;;20.82;70.95;100872.00;5087348;28;20230;-63
2021/07/02 02:02:59;;;;;;;10.43;4.60;;;;;;;20.60;70.70;100838.75;5070903;28;20215;-63
2021/07/02 02:05:24;;;;;;;8.10;4.93;;;;;;;20.85;71.30;100868.97;5072027;28;20182;-63
2021/07/02 02:07:50;;;;;;;8.20;4.80;;;;;;;20.86;70.96;100864.06;5081770;28;20179;-63
2021/07/02 02:10:16;;;;;;;6.83;3.60;;;;;;;20.89;70.75;100868.72;5091885;28;20253;-63
2021/07/02 02:12:41;;;;;;;8.00;4.03;;;;;;;20.87;70.65;100872.03;5086762;28;20617;-63
2021/07/02 02:15:07;;;;;;;8.70;4.57;;;;;;;20.56;71.14;100834.56;5081653;28;20299;-63
2021/07/02 02:17:34;;;;;;;8.53;3.77;;;;;;;20.69;71.59;100872.38;5090244;28;20182;-63
2021/07/02 02:19:59;;;;;;;7.93;4.43;;;;;;;20.09;71.81;100798.47;5086607;28;20233;-63
2021/07/02 02:22:25;;;;;;;10.00;4.90;;;;;;;20.53;71.86;100866.56;5071453;28;20551;-63
2021/07/02 02:24:51;;;;;;;13.60;5.17;;;;;;;20.48;72.57;100865.25;5077984;28;20203;-63
2021/07/02 02:27:17;;;;;;;7.97;4.90;;;;;;;20.53;72.34;100863.75;5089926;28;20185;-63
2021/07/02 02:29:42;;;;;;;10.93;5.77;;;;;;;20.24;72.49;100838.56;5091971;28;20475;-63
2021/07/02 02:32:08;;;;;;;11.77;5.63;;;;;;;20.01;72.53;100814.97;5090157;28;20564;-63
2021/07/02 02:34:34;;;;;;;9.97;6.23;;;;;;;20.38;72.86;100861.03;5091796;28;20177;-63
2021/07/02 02:36:59;;;;;;;8.83;6.43;;;;;;;20.45;72.58;100871.84;5083302;28;20175;-63
2021/07/02 02:39:25;;;;;;;14.07;7.40;;;;;;;20.46;72.25;100878.25;5071239;28;20171;-63
2021/07/02 02:41:50;;;;;;;8.13;6.80;;;;;;;20.44;72.24;100880.78;5071580;28;20637;-63
2021/07/02 02:44:16;;;;;;;10.90;8.40;;;;;;;20.32;71.97;100879.84;5085138;28;20717;-63
2021/07/02 02:46:41;;;;;;;10.53;8.70;;;;;;;20.16;72.08;100871.22;5091958;28;20178;-63
2021/07/02 02:49:07;;;;;;;10.63;9.63;;;;;;;20.22;72.34;100874.88;5081890;28;20191;-63
2021/07/02 02:51:32;;;;;;;12.00;10.23;;;;;;;20.16;72.10;100882.47;5070688;28;20187;-62
2021/07/02 02:53:58;;;;;;;14.93;11.30;;;;;;;20.14;72.31;100880.16;5071235;28;20271;-62
2021/07/02 02:56:23;;;;;;;11.97;10.83;;;;;;;20.06;72.53;100869.78;5077470;28;20210;-63
2021/07/02 02:58:49;;;;;;;17.00;12.60;;;;;;;19.99;72.22;100873.78;5070579;28;20213;-63
2021/07/02 03:01:14;;;;;;;13.87;12.47;;;;;;;19.94;72.07;100863.22;5080442;28;20188;-62
2021/07/02 03:03:40;;;;;;;13.77;12.57;;;;;;;20.01;72.03;100868.44;5091100;28;20199;-63
2021/07/02 03:06:05;;;;;;;14.87;13.47;;;;;;;19.93;72.39;100863.72;5091310;28;20210;-63
2021/07/02 03:08:31;;;;;;;14.70;13.50;;;;;;;19.28;71.95;100771.53;5090216;28;20197;-62
2021/07/02 03:10:56;;;;;;;16.90;13.60;;;;;;;20.03;71.79;100876.38;5090866;28;20180;-63
2021/07/02 03:13:22;;;;;;;15.23;13.83;;;;;;;20.05;72.01;100880.25;5091092;28;20245;-63
2021/07/02 03:15:47;;;;;;;14.40;13.17;;;;;;;20.04;71.79;100870.28;5075904;28;20565;-63
2021/07/02 03:18:13;;;;;;;14.53;13.10;;;;;;;19.71;72.07;100838.84;5070241;28;20329;-63
2021/07/02 03:20:38;;;;;;;13.80;12.30;;;;;;;19.94;71.86;100866.03;5087165;28;21025;-62
2021/07/02 03:23:04;;;;;;;13.37;12.07;;;;;;;19.59;71.80;100817.47;5090997;28;20458;-63
2021/07/02 03:25:29;;;;;;;14.80;12.60;;;;;;;20.08;71.90;100887.75;5091105;28;20196;-63
2021/07/02 03:27:55;;;;;;;13.40;12.30;;;;;;;20.09;71.54;100894.13;5090351;28;20181;-63
2021/07/02 03:30:20;;;;;;;14.00;12.80;;;;;;;19.56;71.86;100832.53;5090226;28;20261;-63
2021/07/02 03:32:46;;;;;;;16.83;13.57;;;;;;;20.02;71.76;100902.97;5090977;28;20181;-63
2021/07/02 03:35:12;;;;;;;16.37;14.73;;;;;;;19.96;71.79;100904.94;5090911;28;20175;-63
2021/07/02 03:37:38;;;;;;;16.87;15.17;;;;;;;19.99;71.61;100899.09;5075847;28;20198;-63
2021/07/02 03:40:10;;;;;;;16.37;14.67;;;;;;;19.94;71.96;100893.38;5070299;28;20181;-63
2021/07/02 03:42:35;;;;;;;17.93;15.37;;;;;;;19.95;71.48;100897.75;5070035;28;20171;-62
2021/07/02 03:45:01;;;;;;;17.43;16.00;;;;;;;19.30;71.32;100799.91;5070555;28;20628;-63
2021/07/02 03:47:26;;;;;;;18.57;16.97;;;;;;;19.79;71.32;100887.03;5069825;28;20171;-62
2021/07/02 03:49:52;;;;;;;17.53;15.90;;;;;;;19.87;71.03;100905.84;5077043;28;20190;-63
2021/07/02 03:52:18;;;;;;;18.07;16.27;;;;;;;19.85;70.97;100899.91;5070112;28;20178;-63
2021/07/02 03:54:43;;;;;;;18.23;16.33;;;;;;;19.54;70.76;100849.09;5070426;28;20273;-62
2021/07/02 03:57:12;;;;;;;18.33;16.43;;;;;;;20.01;70.66;100919.06;5069774;28;20176;-63
2021/07/02 03:59:46;;;;;;;15.33;14.03;;;;;;;21.32;79.35;100924.78;5070232;28;20661;-66
2021/07/02 04:02:12;;;;;;;14.77;12.63;;;;;;;22.71;65.19;100918.75;5088393;28;20251;-63
2021/07/02 04:04:39;;;;;;;14.70;13.30;;;;;;;21.81;66.92;100915.19;5090763;28;20228;-63
2021/07/02 04:07:05;;;;;;;14.33;13.03;;;;;;;21.49;69.82;100930.56;5085269;28;20187;-63
2021/07/02 04:09:32;;;;;;;15.93;14.63;;;;;;;21.14;65.77;100910.25;5090646;28;20210;-62
2021/07/02 04:11:59;;;;;;;16.53;14.93;;;;;;;20.66;65.93;100864.91;5091154;28;20265;-62
2021/07/02 04:14:24;;;;;;;17.47;15.27;;;;;;;21.23;67.11;100933.38;5090814;28;20293;-64
2021/07/02 04:16:50;;;;;;;15.73;14.47;;;;;;;21.30;68.59;100923.72;5071344;28;20278;-62
2021/07/02 04:19:16;;;;;;;16.73;15.13;;;;;;;21.64;66.52;100919.91;5087046;28;20182;-62
2021/07/02 04:21:41;;;;;;;14.60;13.10;;;;;;;21.73;66.95;100892.31;5087404;28;20799;-66
2021/07/02 04:24:07;;;;;;;14.63;13.30;;;;;;;21.89;64.22;100928.31;5068902;28;20672;-63
2021/07/02 04:26:33;;;;;;;13.47;12.20;;;;;;;22.60;64.57;100870.69;5089275;28;20586;-64
2021/07/02 04:28:58;;;;;;;13.60;12.27;;;;;;;23.32;59.73;100920.44;5089466;28;20187;-63
2021/07/02 04:31:24;;;;;;;14.00;12.53;;;;;;;22.78;60.80;100873.06;5089662;28;20179;-65
2021/07/02 04:33:49;;;;;;;14.30;12.83;;;;;;;22.72;60.44;100917.50;5090206;28;20198;-65
2021/07/02 04:36:15;;;;;;;13.23;12.03;;;;;;;22.56;61.71;100941.56;5089599;28;20183;-63
2021/07/02 04:38:42;;;;;;;14.60;13.20;;;;;;;22.47;61.77;100941.75;5089715;28;20206;-62
2021/07/02 04:41:08;;;;;;;13.53;12.30;;;;;;;22.38;61.49;100925.03;5090179;28;20193;-64
2021/07/02 04:43:34;;;;;;;12.83;11.53;;;;;;;22.31;62.45;100928.31;5088515;28;20270;-64
2021/07/02 04:45:59;;;;;;;12.60;11.60;;;;;;;22.48;62.53;100903.78;5089842;28;20258;-63
2021/07/02 04:48:24;;;;;;;12.70;11.50;;;;;;;22.63;62.17;100941.06;5089191;28;20182;-62
2021/07/02 04:50:50;;;;;;;25.97;11.50;;;;;;;22.95;61.07;100945.28;5093354;28;20171;-64
2021/07/02 04:53:17;;;;;;;11.93;10.63;;;;;;;22.73;61.89;100952.94;5090028;28;20660;-66
2021/07/02 04:55:43;;;;;;;10.63;9.27;;;;;;;22.95;60.47;100941.69;5085081;28;20703;-65
2021/07/02 04:58:08;;;;;;;10.70;9.60;;;;;;;22.95;60.61;100955.81;5081059;28;20192;-64
2021/07/02 05:00:34;;;;;;;11.80;8.90;;;;;;;22.50;60.93;100963.34;5085013;28;20186;-70
2021/07/02 05:03:00;;;;;;;9.37;8.67;;;;;;;22.31;61.11;100958.63;5083365;28;20239;-68
2021/07/02 05:05:25;;;;;;;9.70;8.90;;;;;;;21.97;61.90;100901.19;5075953;28;20191;-70
2021/07/02 05:07:51;;;;;;;10.90;8.60;;;;;;;22.53;61.46;100962.34;5078531;28;20179;-68
2021/07/02 05:10:16;;;;;;;9.00;8.20;;;;;;;22.55;61.21;100964.66;5077968;28;20668;-69
2021/07/02 05:12:42;;;;;;;12.10;8.07;;;;;;;22.66;60.92;100967.53;5073632;28;20187;-66
2021/07/02 05:15:09;;;;;;;9.60;8.07;;;;;;;22.62;60.89;100964.94;5071278;28;20202;-64
2021/07/02 05:17:34;;;;;;;8.63;7.77;;;;;;;22.48;61.41;100940.50;5076028;28;20227;-69
2021/07/02 05:20:00;;;;;;;8.93;8.03;;;;;;;23.00;61.93;100961.50;5086298;28;20293;-65
2021/07/02 05:22:25;;;;;;;8.70;6.93;;;;;;;22.60;60.39;100978.03;5079082;28;20187;-64
2021/07/02 05:24:51;;;;;;;8.70;7.17;;;;;;;22.62;60.78;100989.59;5073690;28;20682;-71
2021/07/02 05:27:17;;;;;;;8.10;7.40;;;;;;;22.49;62.31;100978.75;5079408;28;20632;-68
2021/07/02 05:29:43;;;;;;;7.60;6.93;;;;;;;22.42;61.75;100973.53;5075847;28;20276;-68
2021/07/02 05:32:08;;;;;;;8.73;6.30;;;;;;;22.61;60.63;100983.19;5083001;28;20195;-65
2021/07/02 05:34:35;;;;;;;10.43;6.40;;;;;;;22.78;60.35;100960.66;5079346;28;20652;-62
2021/07/02 05:37:01;;;;;;;6.80;6.10;;;;;;;22.50;59.95;100920.22;5063040;28;20636;-66
2021/07/02 05:39:27;;;;;;;8.17;5.97;;;;;;;22.70;59.49;100973.72;5080380;28;20175;-68
2021/07/02 05:41:53;;;;;;;6.57;5.30;;;;;;;22.62;59.45;100979.06;5073950;28;20801;-60
2021/07/02 05:44:19;;;;;;;8.23;5.27;;;;;;;22.60;59.49;100927.19;5078440;28;20175;-69
2021/07/02 05:46:44;;;;;;;5.77;5.00;;;;;;;23.05;59.20;100969.22;5082791;28;20681;-68
2021/07/02 05:49:11;;;;;;;6.57;5.17;;;;;;;23.14;59.50;100977.44;5072538;28;20708;-70
2021/07/02 05:51:36;;;;;;;5.10;4.60;;;;;;;22.61;59.02;100923.84;5079058;28;20183;-66
2021/07/02 05:54:02;;;;;;;7.33;4.07;;;;;;;22.58;57.52;100919.25;5078569;28;20696;-66
2021/07/02 05:56:28;;;;;;;6.30;3.90;;;;;;;23.32;56.95;100976.22;5083622;28;20190;-62
2021/07/02 05:58:58;;;;;;;6.40;4.17;;;;;;;23.67;57.46;100977.31;5080909;28;20256;-62
2021/07/02 06:01:25;;;;;;;5.10;4.00;;;;;;;23.13;57.23;100910.13;5065454;28;20287;-63
2021/07/02 06:03:50;;;;;;;4.33;3.80;;;;;;;23.78;55.48;100991.44;5079327;28;20178;-63
2021/07/02 06:06:17;;;;;;;7.00;4.07;;;;;;;23.44;57.29;100986.28;5078369;28;20205;-62
2021/07/02 06:08:42;;;;;;;5.30;3.93;;;;;;;23.08;57.01;100925.78;5077946;28;20244;-62
2021/07/02 06:11:08;;;;;;;6.43;3.90;;;;;;;23.55;55.82;100995.53;5085736;28;20608;-63
2021/07/02 06:13:33;;;;;;;7.07;4.20;;;;;;;23.38;56.24;100965.72;5080685;28;20226;-62
2021/07/02 06:15:59;;;;;;;4.77;3.87;;;;;;;23.64;55.65;100977.56;5077225;28;20240;-62
2021/07/02 06:18:24;;;;;;;5.53;4.10;;;;;;;23.75;56.74;101003.03;5084438;28;20190;-63
2021/07/02 06:20:54;;;;;;;5.60;3.40;;;;;;;23.11;56.60;100944.56;5078333;28;20223;-63
2021/07/02 06:23:39;;;;;;;5.30;3.90;;;;;;;23.22;57.03;100967.22;5070285;28;20233;-62
2021/07/02 06:26:06;;;;;;;8.20;4.30;;;;;;;23.83;56.43;101015.38;5082906;28;20182;-63
2021/07/02 06:28:32;;;;;;;5.53;4.07;;;;;;;24.24;55.14;101028.50;5082868;28;20223;-63
2021/07/02 06:30:58;;;;;;;4.13;3.67;;;;;;;23.56;54.07;100951.84;5078790;28;20649;-63
2021/07/02 06:33:24;;;;;;;9.50;3.87;;;;;;;23.69;54.85;100969.06;5084098;28;20248;-62
2021/07/02 06:35:50;;;;;;;6.40;4.63;;;;;;;23.69;53.07;100969.06;5076172;28;20183;-63
2021/07/02 06:38:21;;;;;;;7.77;4.40;;;;;;;23.88;54.12;101008.94;5082809;28;20221;-62
2021/07/02 06:40:48;;;;;;;5.40;4.70;;;;;;;24.07;53.16;101027.75;5074374;28;20179;-62
2021/07/02 06:43:14;;;;;;;8.40;5.43;;;;;;;24.05;52.71;101033.16;5085695;28;20284;-63
2021/07/02 06:45:40;;;;;;;8.37;5.23;;;;;;;24.41;51.05;101025.66;5078473;28;20626;-63
2021/07/02 06:48:07;;;;;;;6.10;5.50;;;;;;;24.69;50.22;101027.16;5074252;28;20634;-63
2021/07/02 06:50:37;;;;;;;10.30;6.03;;;;;;;24.47;51.97;101032.06;5071467;28;20183;-63
2021/07/02 06:53:05;;;;;;;8.27;6.23;;;;;;;24.37;51.37;101023.06;5084010;28;20183;-63
2021/07/02 06:55:32;;;;;;;9.73;6.93;;;;;;;24.53;50.61;101027.16;5082556;28;20618;-62
2021/07/02 06:57:58;;;;;;;7.87;7.07;;;;;;;24.66;50.78;101028.19;5068408;28;20227;-62
2021/07/02 07:00:24;;;;;;;7.67;6.83;;;;;;;24.75;49.79;101024.28;5046165;28;20287;-63
2021/07/02 07:02:51;;;;;;;7.30;6.60;;;;;;;24.94;49.41;101030.91;5098444;28;20281;-62
2021/07/02 07:05:17;;;;;;;7.43;6.57;;;;;;;24.77;49.55;101027.38;5072961;28;20583;-62
2021/07/02 07:07:43;;;;;;;6.90;6.20;;;;;;;24.42;49.42;100987.53;5079972;28;20183;-62
2021/07/02 07:10:10;;;;;;;7.13;6.53;;;;;;;24.24;50.16;100983.19;5074873;28;20186;-63
2021/07/02 07:12:36;;;;;;;7.20;6.50;;;;;;;24.57;50.18;101042.59;5079877;28;20193;-66
2021/07/02 07:15:03;;;;;;;9.03;7.07;;;;;;;24.43;49.58;101037.22;5075613;28;20660;-70
2021/07/02 07:17:30;;;;;;;8.67;7.10;;;;;;;24.29;50.61;101024.91;5082383;28;20190;-64
2021/07/02 07:19:55;;;;;;;7.83;6.67;;;;;;;24.63;50.18;101032.06;5081762;28;20316;-63
2021/07/02 07:22:21;;;;;;;9.77;7.30;;;;;;;24.31;49.85;100990.41;5075554;28;20180;-65
2021/07/02 07:24:47;;;;;;;8.27;6.30;;;;;;;24.62;48.49;101032.59;5079190;28;20190;-64
2021/07/02 07:27:12;;;;;;;7.60;6.53;;;;;;;25.03;47.79;101034.22;5078132;28;20683;-62
2021/07/02 07:29:38;;;;;;;6.77;6.07;;;;;;;25.07;47.80;101036.78;5072305;28;20179;-65
2021/07/02 07:32:04;;;;;;;6.93;6.33;;;;;;;24.76;49.05;101040.00;5080136;28;20245;-65
2021/07/02 07:37:20;;;;;;;10.10;5.70;;;;;;;24.42;47.89;101004.53;5076902;28;20198;-65
2021/07/02 07:39:47;;;;;;;10.47;5.63;;;;;;;24.64;49.35;101032.81;5068526;28;20686;-63
2021/07/02 07:42:12;;;;;;;6.10;5.50;;;;;;;24.60;48.50;101024.59;5077202;28;20187;-65
2021/07/02 07:44:57;;;;;;;6.67;5.60;;;;;;;25.10;47.50;101044.25;5077322;28;20668;-65
2021/07/02 07:47:22;;;;;;;8.50;4.93;;;;;;;24.99;46.77;101039.41;5076049;28;20179;-65
2021/07/02 07:49:48;;;;;;;8.23;5.23;;;;;;;25.03;48.77;101042.72;5081962;28;20765;-67
2021/07/02 07:52:18;;;;;;;6.00;5.07;;;;;;;24.78;47.34;101023.25;5078407;28;20191;-67
2021/07/02 07:54:43;;;;;;;7.63;5.13;;;;;;;24.76;47.00;101035.09;5071403;28;20209;-65
2021/07/02 07:57:09;;;;;;;5.93;5.00;;;;;;;24.87;48.35;101037.91;5084681;28;20569;-64
2021/07/02 07:59:35;;;;;;;6.70;4.90;;;;;;;25.06;47.85;101029.56;5080395;28;20187;-66
2021/07/02 08:02:01;;;;;;;8.07;5.70;;;;;;;25.06;48.97;101033.19;5072254;28;20186;-68
2021/07/02 08:04:26;;;;;;;9.23;4.80;;;;;;;25.10;47.82;101059.22;5077566;28;20186;-66
2021/07/02 08:06:52;;;;;;;7.80;4.43;;;;;;;25.02;47.62;101038.34;5079173;28;20183;-66
2021/07/02 08:09:19;;;;;;;7.63;4.80;;;;;;;24.60;46.41;101013.25;5081914;28;20239;-66
2021/07/02 08:11:45;;;;;;;5.20;4.70;;;;;;;24.80;46.17;101035.63;5079992;28;20187;-66
2021/07/02 08:14:11;;;;;;;8.00;5.33;;;;;;;24.92;48.01;101042.03;5081080;28;20204;-65
2021/07/02 08:16:39;;;;;;;6.10;4.83;;;;;;;25.19;48.04;101038.28;5078296;28;20668;-65
2021/07/02 08:19:05;;;;;;;6.23;5.60;;;;;;;25.21;46.29;101041.34;5077132;28;20580;-65
2021/07/02 08:21:31;;;;;;;12.67;5.80;;;;;;;25.40;47.92;101042.31;5071389;28;20280;-65
2021/07/02 08:23:57;;;;;;;6.20;5.63;;;;;;;25.63;46.43;101057.88;5084335;28;20202;-66
2021/07/02 08:26:24;;;;;;;6.20;5.60;;;;;;;25.22;45.51;101043.66;5080552;28;20839;-66
2021/07/02 08:31:34;;;;;;;6.53;5.50;;;;;;;25.18;46.25;101040.31;5075865;28;20182;-65
2021/07/02 08:34:00;;;;;;;7.60;5.53;;;;;;;25.22;45.69;101051.41;5076733;28;20203;-64
2021/07/02 08:36:26;;;;;;;6.70;4.93;;;;;;;25.19;46.13;101058.88;5080062;28;20206;-62
2021/07/02 08:38:51;;;;;;;6.03;5.03;;;;;;;25.06;47.15;101013.34;5072700;28;20172;-62
2021/07/02 08:41:17;;;;;;;6.03;5.43;;;;;;;25.17;46.81;101046.56;5072356;28;20641;-64
2021/07/02 08:43:48;;;;;;;7.20;6.00;;;;;;;25.04;47.32;101044.28;5080431;28;20195;-62
2021/07/02 08:46:15;;;;;;;6.43;5.83;;;;;;;25.38;47.47;101050.59;5080637;28;20201;-62
2021/07/02 08:48:41;;;;;;;10.40;5.90;;;;;;;25.59;47.17;101057.41;5082971;28;20183;-69
2021/07/02 08:51:08;;;;;;;8.27;6.60;;;;;;;25.69;46.24;101053.72;5089721;28;20179;-69
2021/07/02 08:53:34;;;;;;;10.30;6.90;;;;;;;25.86;47.43;101062.13;5084370;28;20200;-67
2021/07/02 08:56:03;;;;;;;8.80;6.80;;;;;;;25.85;47.27;101069.09;5082173;28;20191;-66
2021/07/02 08:58:29;;;;;;;7.90;7.17;;;;;;;25.98;46.97;101058.69;5081224;28;20182;-66
2021/07/02 09:00:55;;;;;;;10.83;7.20;;;;;;;25.51;47.90;101008.19;5079077;28;20703;-66
2021/07/02 09:03:27;;;;;;;8.13;7.10;;;;;;;25.69;48.04;101025.34;5086584;28;20195;-64
2021/07/02 09:05:54;;;;;;;7.43;6.70;;;;;;;25.82;47.48;101070.94;5083027;28;20198;-63
2021/07/02 09:08:22;;;;;;;8.13;6.43;;;;;;;25.92;46.45;101063.66;5080008;28;20274;-67
2021/07/02 09:10:48;;;;;;;6.70;6.00;;;;;;;26.02;47.35;101066.94;5084854;28;20289;-67
2021/07/02 09:13:14;;;;;;;8.83;6.30;;;;;;;26.48;46.19;101069.59;5078859;28;20278;-65
2021/07/02 09:15:43;;;;;;;5.47;4.97;;;;;;;26.69;45.21;101062.19;5079908;28;20328;-65
2021/07/02 09:18:09;;;;;;;7.63;5.37;;;;;;;26.94;45.24;101073.00;5074396;28;20183;-65
2021/07/02 09:20:36;;;;;;;5.93;5.20;;;;;;;26.82;45.16;101059.47;5083011;28;20486;-67
2021/07/02 09:23:07;;;;;;;5.97;5.37;;;;;;;27.10;45.93;101071.25;5073860;28;20297;-65
2021/07/02 09:25:37;;;;;;;8.25;4.70;;;;;;;27.02;44.41;101070.34;5081654;28;20502;-65
2021/07/02 09:28:14;;;;;;;7.60;4.63;;;;;;;26.66;44.85;101029.16;5086428;28;20689;-67
2021/07/02 09:30:42;;;;;;;5.30;4.72;;;;;;;27.34;44.06;101071.25;5076449;28;20281;-65
2021/07/02 09:33:10;;;;;;;7.32;4.43;;;;;;;26.77;44.94;101046.81;5081764;28;20183;-62
2021/07/02 09:35:49;;;;;;;6.73;4.67;;;;;;;27.03;43.81;101066.19;5075536;28;20299;-62
2021/07/02 09:38:16;;;;;;;6.13;5.13;;;;;;;27.14;43.35;101060.34;5086743;28;20167;-62
2021/07/02 09:40:44;;;;;;;6.17;4.73;;;;;;;27.42;43.99;101066.44;5086870;28;20674;-61
2021/07/02 09:43:13;;;;;;;5.20;4.70;;;;;;;27.41;42.38;101042.16;5078326;28;20179;-61
2021/07/02 09:45:54;;;;;;;7.60;5.40;;;;;;;27.23;42.80;101018.06;5084390;28;20203;-60
2021/07/02 09:48:30;;;;;;;5.87;4.90;;;;;;;27.46;43.15;101062.00;5081895;28;20240;-61
2021/07/02 09:50:57;;;;;;;6.60;5.00;;;;;;;27.93;42.34;101040.34;5083479;28;20623;-61
2021/07/02 09:53:35;;;;;;;5.17;4.30;;;;;;;27.90;43.23;101055.66;5091017;28;20266;-62
2021/07/02 09:56:05;;;;;;;4.20;3.80;;;;;;;27.81;40.66;101056.06;5078129;28;20179;-62
2021/07/02 09:58:36;;;;;;;6.07;3.93;;;;;;;27.67;41.83;101059.34;5084659;28;20261;-63
2021/07/02 10:01:03;;;;;;;6.17;4.13;;;;;;;27.75;42.25;101061.03;5086863;28;20176;-61
2021/07/02 10:03:29;;;;;;;6.43;4.78;;;;;;;27.67;42.32;101057.28;5082236;28;20171;-61
2021/07/02 10:06:05;;;;;;;5.20;4.70;;;;;;;27.29;42.83;101013.09;5083738;28;20737;-61
2021/07/02 10:08:36;;;;;;;5.47;4.57;;;;;;;27.57;43.44;101053.31;5077398;28;20661;-64
2021/07/02 10:11:04;;;;;;;8.23;4.40;;;;;;;27.07;42.65;101055.28;5078598;28;20695;-64
2021/07/02 10:13:32;;;;;;;5.73;5.00;;;;;;;26.74;44.50;101047.91;5060930;28;20286;-66
2021/07/02 10:15:59;;;;;;;12.10;4.93;;;;;;;26.80;42.95;101050.66;5075005;28;20587;-67
2021/07/02 10:18:29;;;;;;;4.83;4.37;;;;;;;26.95;44.37;101048.16;5079545;28;20679;-66
2021/07/02 10:20:58;;;;;;;7.17;4.77;;;;;;;26.86;43.05;101003.06;5066312;28;20268;-67
2021/07/02 10:23:46;;;;;;;8.60;4.27;;;;;;;27.18;42.29;101026.72;5039041;28;20649;-66
2021/07/02 10:26:16;;;;;;;5.27;4.60;;;;;;;27.24;42.77;101050.16;5073332;28;20197;-66
2021/07/02 10:28:44;;;;;;;5.67;4.67;;;;;;;27.28;41.60;101025.03;5075191;28;20172;-67
2021/07/02 10:31:11;;;;;;;5.83;4.10;;;;;;;27.56;42.59;101043.22;5080080;28;20175;-67
2021/07/02 10:33:43;;;;;;;6.03;3.93;;;;;;;27.72;41.67;101042.19;5082561;28;20195;-67
2021/07/02 10:36:09;;;;;;;7.07;3.90;;;;;;;27.55;41.73;101026.69;5079582;28;20699;-67
2021/07/02 10:38:40;;;;;;;5.03;3.80;;;;;;;27.61;40.59;101030.22;5074531;28;20846;-67
2021/07/02 10:41:16;;;;;;;6.30;4.00;;;;;;;27.19;41.22;100977.03;5077040;28;20189;-67
2021/07/02 10:44:03;;;;;;;3.83;3.40;;;;;;;27.48;40.63;101027.31;5071508;28;20175;-67
2021/07/02 10:46:31;;;;;;;6.13;3.00;;;;;;;27.74;40.87;101030.28;5100375;28;20386;-68
2021/07/02 10:49:03;;;;;;;2.93;2.60;;;;;;;27.25;40.08;100966.31;5080470;28;20176;-67
2021/07/02 10:51:32;;;;;;;3.83;2.87;;;;;;;27.87;40.70;101033.19;5083126;28;20214;-67
2021/07/02 10:54:13;;;;;;;4.27;2.83;;;;;;;27.74;39.34;101010.34;5078124;28;20264;-65
2021/07/02 10:56:44;;;;;;;4.60;3.40;;;;;;;27.31;39.67;100952.78;5097097;28;20195;-67
2021/07/02 10:59:12;;;;;;;5.67;3.80;;;;;;;28.01;40.10;101014.81;5082650;28;20190;-64
2021/07/02 11:01:57;;;;;;;4.60;3.60;;;;;;;28.30;41.17;101014.53;5073170;28;20691;-66
2021/07/02 11:04:36;;;;;;;3.43;3.13;;;;;;;28.38;39.23;100986.16;5072252;28;20202;-67
2021/07/02 11:07:26;;;;;;;4.57;2.90;;;;;;;28.57;38.40;101029.63;5080319;28;20179;-63
2021/07/02 11:09:52;;;;;;;3.50;2.35;;;;;;;28.59;36.94;101007.03;5067684;28;20683;-64
2021/07/02 11:12:18;;;;;;;4.70;2.30;;;;;;;28.45;39.76;100996.97;5079534;28;20262;-63
2021/07/02 11:14:56;;;;;;;5.10;2.33;;;;;;;28.33;38.60;101009.84;5077953;28;20206;-64
2021/07/02 11:17:36;;;;;;;4.10;2.43;;;;;;;27.91;39.00;100970.97;5077321;28;20175;-67
2021/07/02 11:20:07;;;;;;;3.30;2.07;;;;;;;28.20;38.59;101009.84;5077671;28;20227;-66
2021/07/02 11:22:35;;;;;;;5.23;2.40;;;;;;;28.17;38.58;101011.69;5080012;28;20177;-65
2021/07/02 11:25:06;;;;;;;4.40;2.60;;;;;;;28.25;39.40;101020.38;5080212;28;20663;-61
2021/07/02 11:27:52;;;;;;;3.73;2.07;;;;;;;28.07;39.79;101012.66;5079779;28;20709;-65